Terminal Aerodrome Forecast
Issued by NWS Grand Forks, ND

Home | Current Version | Previous Version | Graphics & Text | Print | Product List | Glossary On
Versions: 1 2 3 4 5 6 7 8 9 10 11 12 13 14 15 16
013
FTUS43 KFGF 252338
TAFGFK
TAF
KGFK 252338Z 2600/2624 06021KT P6SM VCSH OVC015
      TEMPO 2600/2602 5SM -RA BR
     FM261500 07015KT P6SM OVC025
     FM261700 08012KT P6SM BKN035=

USA.gov is the U.S. government's official web portal to all federal, state and local government web resources and services.